Time;durP1;ratioP1;P1;durP2;ratioP2;P2;SDS_P1;SDS_P2;PMS_P1;PMS_P2;Temp;Humidity;BMP_temperature;BMP_pressure;BME280_temperature;BME280_humidity;BME280_pressure;Samples;Min_cycle;Max_cycle;Signal;HPM_P1;HPM_P2
2023/08/25 00:00:09;;;;;;;33.58;25.83;;;19.80;99.90;;;;;;5103718;28;20544;-67
2023/08/25 00:02:35;;;;;;;37.00;26.80;;;19.90;99.90;;;;;;5102942;28;20031;-65
2023/08/25 00:05:01;;;;;;;41.80;28.50;;;19.80;99.90;;;;;;5104752;28;20371;-66
2023/08/25 00:07:27;;;;;;;33.28;26.35;;;19.80;99.90;;;;;;5101655;28;20024;-65
2023/08/25 00:09:53;;;;;;;38.72;27.17;;;19.80;99.90;;;;;;5103633;28;20030;-67
2023/08/25 00:12:18;;;;;;;41.92;29.60;;;19.80;99.90;;;;;;5103072;28;20032;-65
2023/08/25 00:14:44;;;;;;;38.17;27.38;;;19.70;99.90;;;;;;5100588;28;20081;-65
2023/08/25 00:17:09;;;;;;;44.20;29.45;;;19.70;99.90;;;;;;5103714;28;20024;-66
2023/08/25 00:19:35;;;;;;;39.17;27.63;;;19.70;99.90;;;;;;5102016;28;20349;-65
2023/08/25 00:22:02;;;;;;;43.42;28.88;;;19.70;99.90;;;;;;5102312;28;20020;-65
2023/08/25 00:24:27;;;;;;;38.05;27.33;;;19.70;99.90;;;;;;5103623;28;20043;-66
2023/08/25 00:26:53;;;;;;;37.70;27.55;;;19.80;99.90;;;;;;5102057;28;20074;-66
2023/08/25 00:29:20;;;;;;;42.85;28.95;;;19.80;99.90;;;;;;5101089;28;20027;-66
2023/08/25 00:31:45;;;;;;;39.33;27.67;;;19.70;99.90;;;;;;5103039;28;20660;-66
2023/08/25 00:34:11;;;;;;;37.97;27.85;;;19.80;99.90;;;;;;5103911;28;20043;-66
2023/08/25 00:36:37;;;;;;;40.50;27.92;;;19.80;99.90;;;;;;5102642;28;20028;-65
2023/08/25 00:39:03;;;;;;;33.72;25.05;;;19.80;99.90;;;;;;5099918;28;20077;-64
2023/08/25 00:41:28;;;;;;;36.58;24.38;;;19.90;99.90;;;;;;5092550;28;20031;-65
2023/08/25 00:43:54;;;;;;;41.38;24.02;;;19.90;99.90;;;;;;5092242;28;20077;-66
2023/08/25 00:46:21;;;;;;;34.22;23.92;;;20.00;99.90;;;;;;5092183;28;20153;-67
2023/08/25 00:48:47;;;;;;;32.45;20.83;;;20.00;99.90;;;;;;5091337;28;20028;-66
2023/08/25 00:51:13;;;;;;;29.67;19.73;;;20.10;99.90;;;;;;5092693;28;20539;-66
2023/08/25 00:53:40;;;;;;;29.42;19.83;;;20.10;99.90;;;;;;5092458;28;20032;-66
2023/08/25 00:56:07;;;;;;;27.80;19.52;;;20.10;99.90;;;;;;5092684;28;20050;-66
2023/08/25 00:58:32;;;;;;;27.88;20.30;;;20.10;99.90;;;;;;5092306;28;20052;-66
2023/08/25 01:01:01;;;;;;;27.20;19.58;;;20.00;99.90;;;;;;5092610;28;20020;-66
2023/08/25 01:03:27;;;;;;;30.10;18.67;;;20.00;99.90;;;;;;5112315;28;20479;-66
2023/08/25 01:05:52;;;;;;;30.17;19.85;;;19.90;99.90;;;;;;5112964;28;20031;-66
2023/08/25 01:08:19;;;;;;;34.25;22.38;;;19.90;99.90;;;;;;5112921;28;20015;-66
2023/08/25 01:10:50;;;;;;;28.00;20.08;;;19.80;99.90;;;;;;5112699;28;20617;-66
2023/08/25 01:13:23;;;;;;;34.25;20.73;;;19.80;99.90;;;;;;5112749;28;20066;-67
2023/08/25 01:15:52;;;;;;;28.45;21.55;;;19.80;99.90;;;;;;5112647;28;20107;-66
2023/08/25 01:18:28;;;;;;;31.35;21.27;;;19.80;99.90;;;;;;5103230;28;20024;-67
2023/08/25 01:20:56;;;;;;;37.63;21.48;;;19.70;99.90;;;;;;5101875;28;20028;-66
2023/08/25 01:23:47;;;;;;;31.90;23.20;;;19.70;99.90;;;;;;5101223;28;20077;-67
2023/08/25 01:26:13;;;;;;;34.53;23.45;;;19.70;99.90;;;;;;5102599;28;20089;-66
2023/08/25 01:28:42;;;;;;;36.17;24.75;;;19.60;99.90;;;;;;5100888;28;20418;-66
2023/08/25 01:31:07;;;;;;;35.83;24.25;;;19.60;99.90;;;;;;5102169;28;20026;-67
2023/08/25 01:33:34;;;;;;;39.35;27.17;;;19.60;99.90;;;;;;5102943;28;20266;-66
2023/08/25 01:36:17;;;;;;;36.53;26.38;;;19.50;99.90;;;;;;5100694;28;20074;-67
2023/08/25 01:38:56;;;;;;;44.40;28.10;;;19.50;99.90;;;;;;5101218;28;20031;-65
2023/08/25 01:42:02;;;;;;;39.70;27.95;;;19.50;99.90;;;;;;5101327;28;20021;-66
2023/08/25 01:44:29;;;;;;;42.00;29.10;;;19.50;99.90;;;;;;5095798;28;20380;-66
2023/08/25 01:47:01;;;;;;;45.90;28.25;;;19.50;99.90;;;;;;5104544;28;20100;-67
2023/08/25 01:49:28;;;;;;;39.67;29.50;;;19.50;99.90;;;;;;5105106;28;20032;-66
2023/08/25 01:51:54;;;;;;;38.70;27.17;;;19.50;99.90;;;;;;5104859;28;20517;-66
2023/08/25 01:54:20;;;;;;;46.25;28.52;;;19.50;99.90;;;;;;5106434;28;20035;-67
2023/08/25 01:56:45;;;;;;;35.58;25.77;;;19.50;99.90;;;;;;5104888;28;20020;-66
2023/08/25 01:59:11;;;;;;;35.47;25.42;;;19.50;99.90;;;;;;5104762;28;20096;-66
2023/08/25 02:01:37;;;;;;;35.70;24.45;;;19.50;99.90;;;;;;5105205;28;20467;-66
2023/08/25 02:04:03;;;;;;;37.50;25.23;;;19.50;99.90;;;;;;5103119;28;20019;-66
2023/08/25 02:06:28;;;;;;;39.38;25.95;;;19.50;99.90;;;;;;5094522;28;20031;-66
2023/08/25 02:08:54;;;;;;;36.00;25.35;;;19.50;99.90;;;;;;5094307;28;20020;-67
2023/08/25 02:11:20;;;;;;;40.70;27.65;;;19.50;99.90;;;;;;5095306;28;20494;-66
2023/08/25 02:13:45;;;;;;;38.42;27.77;;;19.50;99.90;;;;;;5094085;28;20136;-66
2023/08/25 02:16:11;;;;;;;37.63;27.23;;;19.50;99.90;;;;;;5095552;28;20448;-66
2023/08/25 02:18:37;;;;;;;37.60;27.25;;;19.40;99.90;;;;;;5095081;28;20501;-65
2023/08/25 02:21:02;;;;;;;37.83;27.50;;;19.50;99.90;;;;;;5095385;28;20028;-65
2023/08/25 02:23:28;;;;;;;48.22;30.40;;;19.50;99.90;;;;;;5095284;28;20085;-66
2023/08/25 02:25:53;;;;;;;43.13;30.27;;;19.50;99.90;;;;;;5095104;28;20031;-66
2023/08/25 02:28:19;;;;;;;45.03;30.02;;;19.50;99.90;;;;;;5095041;28;20028;-67
2023/08/25 02:30:45;;;;;;;45.53;30.25;;;19.50;99.90;;;;;;5095177;28;20080;-66
2023/08/25 02:33:12;;;;;;;43.03;30.70;;;19.40;99.90;;;;;;5094801;28;20448;-66
2023/08/25 02:35:37;;;;;;;46.22;31.50;;;19.40;99.90;;;;;;5094860;28;20040;-66
2023/08/25 02:38:06;;;;;;;42.42;31.38;;;19.40;99.90;;;;;;5094952;28;20076;-66
2023/08/25 02:40:33;;;;;;;51.42;32.50;;;19.40;99.90;;;;;;5094943;28;20039;-65
2023/08/25 02:43:04;;;;;;;47.25;33.20;;;19.30;99.90;;;;;;5094890;28;20024;-65
2023/08/25 02:45:31;;;;;;;53.88;34.92;;;19.30;99.90;;;;;;5094430;28;20032;-66
2023/08/25 02:47:56;;;;;;;53.35;34.92;;;19.30;99.90;;;;;;5094791;28;20032;-66
2023/08/25 02:50:22;;;;;;;64.45;37.75;;;19.30;99.90;;;;;;5094732;28;20032;-66
2023/08/25 02:52:48;;;;;;;61.10;36.92;;;19.30;99.90;;;;;;5094382;28;20051;-66
2023/08/25 02:55:16;;;;;;;61.83;36.72;;;19.30;99.90;;;;;;5094629;28;20075;-66
2023/08/25 02:57:45;;;;;;;64.38;37.58;;;19.30;99.90;;;;;;5094685;28;20028;-66
2023/08/25 03:00:13;;;;;;;71.28;40.92;;;19.30;99.90;;;;;;5094269;28;20051;-66
2023/08/25 03:02:39;;;;;;;75.47;42.80;;;19.30;99.90;;;;;;5108044;28;20031;-66
2023/08/25 03:05:05;;;;;;;79.57;44.25;;;19.30;99.90;;;;;;5114925;28;20035;-66
2023/08/25 03:07:32;;;;;;;81.30;45.65;;;19.40;99.90;;;;;;5114558;28;20054;-66
2023/08/25 03:09:58;;;;;;;79.07;44.38;;;19.40;99.90;;;;;;5114834;28;20071;-66
2023/08/25 03:12:24;;;;;;;78.55;45.30;;;19.40;99.90;;;;;;5114500;28;20051;-66
2023/08/25 03:14:49;;;;;;;88.35;45.55;;;19.40;99.90;;;;;;5114357;28;20474;-66
2023/08/25 03:17:15;;;;;;;86.82;46.03;;;19.40;99.90;;;;;;5114582;28;20019;-66
2023/08/25 03:19:41;;;;;;;86.78;45.47;;;19.40;99.90;;;;;;5114542;28;20023;-66
2023/08/25 03:22:07;;;;;;;83.07;43.90;;;19.40;99.90;;;;;;5114427;28;20110;-66
2023/08/25 03:24:35;;;;;;;88.40;44.47;;;19.40;99.90;;;;;;5114469;28;20275;-66
2023/08/25 03:27:00;;;;;;;84.80;42.75;;;19.50;99.90;;;;;;5112862;28;20068;-65
2023/08/25 03:29:26;;;;;;;87.15;43.05;;;19.50;99.90;;;;;;5114135;28;20114;-66
2023/08/25 03:31:52;;;;;;;86.75;44.97;;;19.50;99.90;;;;;;5114247;28;20052;-66
2023/08/25 03:34:18;;;;;;;92.22;44.10;;;19.50;99.90;;;;;;5114319;28;20039;-65
2023/08/25 03:36:45;;;;;;;90.63;44.17;;;19.50;99.90;;;;;;5114082;28;20471;-65
2023/08/25 03:39:10;;;;;;;83.65;43.55;;;19.50;99.90;;;;;;5112729;28;20391;-66
2023/08/25 03:41:36;;;;;;;97.05;48.15;;;19.60;99.90;;;;;;5113887;28;20030;-66
2023/08/25 03:44:02;;;;;;;91.88;49.15;;;19.50;99.90;;;;;;5114007;28;20379;-66
2023/08/25 03:46:28;;;;;;;97.93;51.67;;;19.50;99.90;;;;;;5112823;28;20457;-66
2023/08/25 03:48:53;;;;;;;102.82;51.17;;;19.50;99.90;;;;;;5113902;28;20027;-66
2023/08/25 03:51:19;;;;;;;109.47;54.03;;;19.50;99.90;;;;;;5113865;28;20039;-66
2023/08/25 03:53:45;;;;;;;113.57;57.35;;;19.50;99.90;;;;;;5113819;28;20084;-66
2023/08/25 03:56:10;;;;;;;113.45;55.00;;;19.50;99.90;;;;;;5113908;28;20056;-66
2023/08/25 03:58:36;;;;;;;121.18;55.97;;;19.50;99.90;;;;;;5113180;28;20100;-66
2023/08/25 04:01:03;;;;;;;119.28;58.33;;;19.50;99.90;;;;;;5113820;28;20028;-66
2023/08/25 04:03:28;;;;;;;118.97;59.17;;;19.40;99.90;;;;;;5093502;28;20078;-66
2023/08/25 04:05:54;;;;;;;119.07;58.25;;;19.50;99.90;;;;;;5092629;28;20430;-67
2023/08/25 04:08:19;;;;;;;122.00;58.60;;;19.50;99.90;;;;;;5093396;28;20426;-65
2023/08/25 04:10:46;;;;;;;113.50;55.03;;;19.50;99.90;;;;;;5093396;28;20099;-66
2023/08/25 04:13:12;;;;;;;109.28;56.15;;;19.50;99.90;;;;;;5092808;28;20472;-66
2023/08/25 04:15:37;;;;;;;104.72;53.60;;;19.60;99.90;;;;;;5093314;28;20099;-66
2023/08/25 04:18:04;;;;;;;104.68;53.35;;;19.60;99.90;;;;;;5093349;28;20548;-66
2023/08/25 04:20:30;;;;;;;110.85;54.60;;;19.60;99.90;;;;;;5093118;28;20468;-67
2023/08/25 04:22:56;;;;;;;101.90;54.55;;;19.60;99.90;;;;;;5093184;28;20028;-66
2023/08/25 04:25:21;;;;;;;102.47;54.17;;;19.60;99.90;;;;;;5093100;28;20387;-66
2023/08/25 04:27:47;;;;;;;105.85;54.67;;;19.60;99.90;;;;;;5092754;28;20103;-66
2023/08/25 04:30:13;;;;;;;95.43;51.78;;;19.60;99.90;;;;;;5093095;28;20462;-67
2023/08/25 04:32:38;;;;;;;101.70;52.22;;;19.70;99.90;;;;;;5092997;28;20376;-65
2023/08/25 04:35:04;;;;;;;101.32;51.97;;;19.70;99.90;;;;;;5093117;28;20044;-66
2023/08/25 04:37:30;;;;;;;85.20;49.55;;;19.70;99.90;;;;;;5091672;28;20085;-65
2023/08/25 04:39:56;;;;;;;90.30;49.40;;;19.70;99.90;;;;;;5092676;28;20402;-66
2023/08/25 04:42:22;;;;;;;95.05;52.15;;;19.70;99.90;;;;;;5092781;28;20024;-66
2023/08/25 04:44:48;;;;;;;95.93;51.05;;;19.80;99.90;;;;;;5092882;28;20027;-66
2023/08/25 04:47:15;;;;;;;89.20;48.80;;;19.70;99.90;;;;;;5091581;28;20055;-66
2023/08/25 04:49:41;;;;;;;89.65;50.30;;;19.80;99.90;;;;;;5092749;28;20521;-66
2023/08/25 04:52:06;;;;;;;90.20;48.53;;;19.80;99.90;;;;;;5092574;28;20028;-66
2023/08/25 04:54:32;;;;;;;98.22;49.83;;;19.80;99.90;;;;;;5092391;28;20501;-65
2023/08/25 04:56:57;;;;;;;88.80;47.50;;;19.80;99.90;;;;;;5092336;28;20423;-65
2023/08/25 04:59:24;;;;;;;93.45;48.13;;;19.80;99.90;;;;;;5092587;28;20722;-65
2023/08/25 05:01:49;;;;;;;90.35;47.42;;;19.80;99.90;;;;;;5099431;28;20020;-66
2023/08/25 05:04:15;;;;;;;85.28;48.10;;;19.80;99.90;;;;;;5112656;28;20378;-66
2023/08/25 05:06:40;;;;;;;89.10;46.70;;;19.80;99.90;;;;;;5112458;28;20020;-65
2023/08/25 05:09:06;;;;;;;94.47;47.47;;;19.80;99.90;;;;;;5112681;28;20023;-66
2023/08/25 05:11:34;;;;;;;85.82;48.40;;;19.80;99.90;;;;;;5112217;28;20467;-66
2023/08/25 05:13:59;;;;;;;88.70;48.53;;;19.90;99.90;;;;;;5111547;28;20047;-65
2023/08/25 05:16:25;;;;;;;85.95;46.95;;;19.80;99.90;;;;;;5113655;28;20394;-65
2023/08/25 05:18:50;;;;;;;86.28;47.28;;;19.90;99.90;;;;;;5116940;28;20430;-66
2023/08/25 05:21:16;;;;;;;91.80;46.88;;;19.90;99.90;;;;;;5117002;28;20024;-66
2023/08/25 05:23:46;;;;;;;84.38;45.40;;;19.90;99.90;;;;;;5116826;28;20027;-66
2023/08/25 05:26:13;;;;;;;90.50;46.47;;;19.90;99.90;;;;;;5116916;28;20024;-66
2023/08/25 05:28:38;;;;;;;86.20;47.40;;;19.90;99.90;;;;;;5116879;28;20034;-66
2023/08/25 05:31:04;;;;;;;85.05;46.40;;;19.90;99.90;;;;;;5116578;28;20031;-66
2023/08/25 05:33:29;;;;;;;81.95;45.50;;;20.00;99.90;;;;;;5116341;28;20031;-66
2023/08/25 05:35:55;;;;;;;77.85;44.67;;;20.00;99.90;;;;;;5116857;28;20374;-66
2023/08/25 05:38:20;;;;;;;79.28;42.90;;;20.00;99.90;;;;;;5115967;28;20023;-66
2023/08/25 05:40:46;;;;;;;78.53;44.65;;;20.10;99.90;;;;;;5116351;28;20026;-65
2023/08/25 05:43:11;;;;;;;73.47;43.15;;;20.10;99.90;;;;;;5116007;28;20023;-67
2023/08/25 05:45:37;;;;;;;77.43;41.75;;;20.20;99.90;;;;;;5116216;28;20108;-66
2023/08/25 05:48:03;;;;;;;75.05;43.05;;;20.10;99.90;;;;;;5115942;28;20535;-67
2023/08/25 05:50:28;;;;;;;67.60;38.72;;;20.20;99.90;;;;;;5116179;28;20035;-65
2023/08/25 05:52:54;;;;;;;77.03;41.30;;;20.30;99.90;;;;;;5116010;28;20031;-65
2023/08/25 05:55:19;;;;;;;71.70;40.35;;;20.30;99.90;;;;;;5115979;28;20044;-66
2023/08/25 05:57:45;;;;;;;67.15;40.08;;;20.40;99.90;;;;;;5116013;28;20383;-66
2023/08/25 06:00:11;;;;;;;72.60;42.28;;;20.40;99.90;;;;;;5115961;28;20039;-66
2023/08/25 06:02:37;;;;;;;72.82;41.60;;;20.50;99.90;;;;;;5102692;28;20028;-65
2023/08/25 06:05:03;;;;;;;72.68;41.05;;;20.50;99.90;;;;;;5094138;28;20031;-66
2023/08/25 06:07:28;;;;;;;70.65;38.28;;;20.60;99.90;;;;;;5095162;28;20115;-65
2023/08/25 06:09:54;;;;;;;65.30;37.25;;;20.60;99.90;;;;;;5094188;28;20123;-65
2023/08/25 06:12:20;;;;;;;61.15;36.88;;;20.70;99.90;;;;;;5094599;28;20127;-65
2023/08/25 06:14:46;;;;;;;68.35;38.65;;;20.80;99.90;;;;;;5095219;28;20036;-66
2023/08/25 06:17:11;;;;;;;61.70;37.53;;;20.80;99.90;;;;;;5095266;28;20020;-66
2023/08/25 06:19:38;;;;;;;63.33;37.10;;;20.80;99.90;;;;;;5095614;28;20028;-65
2023/08/25 06:22:03;;;;;;;56.03;36.03;;;20.90;99.90;;;;;;5094887;28;20052;-65
2023/08/25 06:24:29;;;;;;;52.50;32.58;;;21.00;99.90;;;;;;5094813;28;20069;-65
2023/08/25 06:26:54;;;;;;;51.95;32.05;;;21.00;99.90;;;;;;5098166;28;20036;-65
2023/08/25 06:29:20;;;;;;;55.97;34.45;;;21.10;99.90;;;;;;5114687;28;20437;-65
2023/08/25 06:31:46;;;;;;;51.25;30.95;;;21.20;99.90;;;;;;5115118;28;20436;-65
2023/08/25 06:34:11;;;;;;;46.63;28.50;;;21.30;99.90;;;;;;5115249;28;20058;-66
2023/08/25 06:36:37;;;;;;;43.63;28.67;;;21.40;99.90;;;;;;5115190;28;20032;-65
2023/08/25 06:39:03;;;;;;;44.80;27.90;;;21.50;99.90;;;;;;5114927;28;20421;-66
2023/08/25 06:41:30;;;;;;;55.97;33.28;;;21.60;99.90;;;;;;5115140;28;20026;-65
2023/08/25 06:43:57;;;;;;;44.22;27.48;;;21.70;99.90;;;;;;5114947;27;20042;-66
2023/08/25 06:46:23;;;;;;;46.05;29.10;;;21.80;99.90;;;;;;5115130;28;20020;-66
2023/08/25 06:48:50;;;;;;;44.70;26.38;;;21.90;99.90;;;;;;5115061;28;20447;-65
2023/08/25 06:51:15;;;;;;;38.55;25.85;;;22.00;99.90;;;;;;5114809;28;20078;-66
2023/08/25 06:53:41;;;;;;;40.20;26.30;;;22.00;99.90;;;;;;5114679;28;20043;-65
2023/08/25 06:56:07;;;;;;;43.78;25.75;;;22.10;99.90;;;;;;5114924;28;20070;-64
2023/08/25 06:58:32;;;;;;;43.20;23.90;;;22.20;99.90;;;;;;5114982;28;20032;-65
2023/08/25 07:00:58;;;;;;;37.30;24.48;;;22.30;99.90;;;;;;5114353;28;20407;-65
2023/08/25 07:03:24;;;;;;;41.22;26.83;;;22.50;99.90;;;;;;5093725;28;20032;-65
2023/08/25 07:05:55;;;;;;;39.08;23.48;;;22.70;99.90;;;;;;5094100;28;20387;-66
2023/08/25 07:08:20;;;;;;;36.17;21.05;;;23.00;99.90;;;;;;5094157;28;20089;-66
2023/08/25 07:10:46;;;;;;;34.65;21.73;;;23.10;99.90;;;;;;5093885;28;20031;-66
2023/08/25 07:13:12;;;;;;;33.80;21.48;;;23.30;99.90;;;;;;5093961;28;20028;-66
2023/08/25 07:15:37;;;;;;;31.02;19.30;;;23.50;99.90;;;;;;5094163;28;20072;-67
2023/08/25 07:18:03;;;;;;;30.50;20.38;;;23.90;99.90;;;;;;5094215;28;20032;-65
2023/08/25 07:20:29;;;;;;;31.67;19.77;;;24.20;99.90;;;;;;5092796;28;20040;-65
2023/08/25 07:22:55;;;;;;;33.13;19.95;;;24.40;99.90;;;;;;5093686;28;20028;-65
2023/08/25 07:25:20;;;;;;;31.45;19.63;;;24.60;99.90;;;;;;5093977;28;20356;-65
2023/08/25 07:27:46;;;;;;;30.95;20.17;;;24.70;99.90;;;;;;5093914;28;20042;-65
2023/08/25 07:30:11;;;;;;;34.95;19.75;;;24.70;99.90;;;;;;5090502;28;20024;-65
2023/08/25 07:32:37;;;;;;;32.53;19.52;;;24.50;99.90;;;;;;5094205;28;20116;-65
2023/08/25 07:35:04;;;;;;;32.80;21.05;;;24.50;99.90;;;;;;5111224;28;20041;-66
2023/08/25 07:37:30;;;;;;;27.73;18.02;;;24.50;99.90;;;;;;5114253;28;20043;-65
2023/08/25 07:39:55;;;;;;;34.20;20.38;;;24.50;99.90;;;;;;5095812;28;20107;-66
2023/08/25 07:42:23;;;;;;;28.60;18.25;;;24.60;99.90;;;;;;5093723;28;20115;-66
2023/08/25 07:44:49;;;;;;;30.90;18.77;;;24.70;99.90;;;;;;5093722;28;20047;-65
2023/08/25 07:47:15;;;;;;;28.50;17.98;;;24.90;99.90;;;;;;5093647;28;20036;-66
2023/08/25 07:49:40;;;;;;;26.80;17.67;;;25.40;99.90;;;;;;5093100;28;20387;-66
2023/08/25 07:52:06;;;;;;;26.42;16.85;;;26.10;99.90;;;;;;5093544;28;20032;-65
2023/08/25 07:54:31;;;;;;;26.42;16.75;;;27.20;99.90;;;;;;5093382;28;20036;-65
2023/08/25 07:56:58;;;;;;;25.10;16.52;;;28.40;99.90;;;;;;5093316;28;20081;-65
2023/08/25 07:59:24;;;;;;;31.98;20.30;;;29.50;99.90;;;;;;5093168;28;20044;-66
2023/08/25 08:01:50;;;;;;;26.50;16.77;;;30.00;99.90;;;;;;5099688;28;20022;-66
2023/08/25 08:04:16;;;;;;;25.63;15.88;;;30.00;99.90;;;;;;5103129;28;20067;-65
2023/08/25 08:06:41;;;;;;;26.73;16.77;;;29.70;99.90;;;;;;5093275;28;20074;-66
2023/08/25 08:09:07;;;;;;;24.58;15.30;;;29.40;99.90;;;;;;5092876;28;20032;-66
2023/08/25 08:11:34;;;;;;;28.08;16.20;;;29.10;99.90;;;;;;5093124;28;20030;-66
2023/08/25 08:14:00;;;;;;;22.55;15.18;;;29.20;99.90;;;;;;5098744;28;20398;-65
2023/08/25 08:16:26;;;;;;;29.75;16.35;;;29.50;99.90;;;;;;5113715;28;20128;-66
2023/08/25 08:18:52;;;;;;;25.75;16.60;;;29.90;99.90;;;;;;5112801;28;20031;-65
2023/08/25 08:21:18;;;;;;;30.65;17.55;;;30.00;99.90;;;;;;5113385;28;20024;-65
2023/08/25 08:23:44;;;;;;;24.30;14.60;;;30.10;99.90;;;;;;5111941;28;20035;-66
2023/08/25 08:26:09;;;;;;;28.17;16.35;;;29.90;99.90;;;;;;5113547;28;20383;-65
2023/08/25 08:28:35;;;;;;;26.58;14.77;;;29.60;99.90;;;;;;5112921;28;20039;-65
2023/08/25 08:31:05;;;;;;;27.08;15.90;;;29.40;99.90;;;;;;5113333;28;20059;-65
2023/08/25 08:33:31;;;;;;;25.23;15.13;;;29.10;99.90;;;;;;5112542;28;20028;-65
2023/08/25 08:35:57;;;;;;;26.33;15.60;;;28.90;99.90;;;;;;5111598;28;20024;-65
2023/08/25 08:38:23;;;;;;;25.95;16.10;;;28.80;99.90;;;;;;5112011;28;20034;-66
2023/08/25 08:40:49;;;;;;;24.35;15.63;;;28.70;99.90;;;;;;5112648;28;20110;-66
2023/08/25 08:43:17;;;;;;;28.00;15.77;;;28.70;99.90;;;;;;5109710;28;20051;-66
2023/08/25 08:45:44;;;;;;;27.48;14.85;;;28.80;99.90;;;;;;5103357;28;20024;-65
2023/08/25 08:48:12;;;;;;;26.50;15.13;;;28.90;99.90;;;;;;5100393;28;20200;-66
2023/08/25 08:50:39;;;;;;;25.88;13.73;;;29.20;99.90;;;;;;5100472;28;20372;-65
2023/08/25 08:53:06;;;;;;;23.50;13.93;;;29.30;99.90;;;;;;5102951;28;20039;-66
2023/08/25 08:55:34;;;;;;;23.75;13.07;;;29.50;99.90;;;;;;5101123;28;20086;-65
2023/08/25 08:57:59;;;;;;;21.83;13.25;;;29.80;99.90;;;;;;5101902;28;20016;-65
2023/08/25 09:00:25;;;;;;;23.90;13.15;;;30.20;99.90;;;;;;5099680;28;20063;-65
2023/08/25 09:02:53;;;;;;;24.48;13.10;;;30.70;99.90;;;;;;5092381;28;20043;-65
2023/08/25 09:05:30;;;;;;;21.80;12.57;;;31.10;99.90;;;;;;5091701;28;20039;-65
2023/08/25 09:08:08;;;;;;;23.75;12.00;;;31.50;99.90;;;;;;5094388;28;20032;-66
2023/08/25 09:10:34;;;;;;;23.83;13.05;;;32.40;99.00;;;;;;5101400;28;20032;-66
2023/08/25 09:12:59;;;;;;;21.90;11.88;;;33.20;97.00;;;;;;5101034;28;20398;-66
2023/08/25 09:15:27;;;;;;;23.23;12.57;;;33.30;96.90;;;;;;5099507;28;20096;-67
2023/08/25 09:18:03;;;;;;;22.58;12.88;;;33.30;97.10;;;;;;5101245;28;20112;-66
2023/08/25 09:20:30;;;;;;;23.02;12.05;;;33.20;96.90;;;;;;5101257;28;20016;-66
2023/08/25 09:22:56;;;;;;;19.15;11.57;;;33.00;97.50;;;;;;5101497;28;20020;-66
2023/08/25 09:25:25;;;;;;;21.40;12.93;;;32.70;97.30;;;;;;5102458;28;20035;-65
2023/08/25 09:27:58;;;;;;;21.95;13.43;;;32.40;97.40;;;;;;5101313;28;20024;-65
2023/08/25 09:30:44;;;;;;;26.38;12.88;;;31.90;97.90;;;;;;5102898;28;20028;-66
2023/08/25 09:33:15;;;;;;;19.85;11.30;;;31.50;98.30;;;;;;5101319;28;20034;-66
2023/08/25 09:35:42;;;;;;;25.33;12.20;;;31.30;98.10;;;;;;5099511;28;20089;-66
2023/08/25 09:38:19;;;;;;;23.40;12.93;;;31.00;97.90;;;;;;5100413;28;20448;-66
2023/08/25 09:40:46;;;;;;;23.63;14.63;;;30.70;98.70;;;;;;5100615;28;20028;-67
2023/08/25 09:43:12;;;;;;;24.45;13.15;;;30.60;99.50;;;;;;5101790;28;20024;-65
2023/08/25 09:45:39;;;;;;;22.98;12.88;;;30.50;99.90;;;;;;5102004;28;20120;-66
2023/08/25 09:48:06;;;;;;;29.48;14.18;;;30.40;99.90;;;;;;5100622;28;20049;-66
2023/08/25 09:50:43;;;;;;;26.45;13.80;;;30.30;99.90;;;;;;5100712;28;20033;-66
2023/08/25 09:53:12;;;;;;;24.80;13.23;;;30.00;99.90;;;;;;5099609;28;20024;-66
2023/08/25 09:55:39;;;;;;;23.35;12.88;;;29.70;99.90;;;;;;5106020;28;20046;-66
2023/08/25 09:58:06;;;;;;;22.25;13.07;;;29.50;99.90;;;;;;5110214;28;20024;-66
2023/08/25 10:00:39;;;;;;;26.63;13.48;;;29.10;99.90;;;;;;5110405;28;20084;-66
2023/08/25 10:03:08;;;;;;;24.98;14.13;;;28.80;99.90;;;;;;5112294;28;20127;-65
2023/08/25 10:05:36;;;;;;;25.10;13.48;;;28.50;99.90;;;;;;5115582;28;20421;-67
2023/08/25 10:08:02;;;;;;;26.58;14.35;;;28.20;99.90;;;;;;5115768;28;20036;-65
2023/08/25 10:10:33;;;;;;;24.58;14.00;;;27.80;99.90;;;;;;5115690;28;20032;-65
2023/08/25 10:13:01;;;;;;;26.67;15.52;;;27.50;99.90;;;;;;5115978;28;20031;-66
2023/08/25 10:15:30;;;;;;;22.73;15.00;;;27.30;99.90;;;;;;5115148;28;20058;-65
2023/08/25 10:18:01;;;;;;;23.20;13.90;;;27.20;99.90;;;;;;5115500;28;20027;-65
2023/08/25 10:20:28;;;;;;;28.98;13.23;;;27.20;99.90;;;;;;5115820;28;20016;-65
2023/08/25 10:22:56;;;;;;;22.73;14.15;;;27.20;99.90;;;;;;5115392;28;20131;-65
2023/08/25 10:25:26;;;;;;;25.17;13.50;;;27.10;99.90;;;;;;5105596;28;20036;-65
2023/08/25 10:27:52;;;;;;;21.45;12.52;;;27.10;99.90;;;;;;5104406;28;20016;-66
2023/08/25 10:30:19;;;;;;;25.60;12.35;;;27.20;99.90;;;;;;5099308;28;20390;-66
2023/08/25 10:32:49;;;;;;;24.48;12.63;;;27.40;99.90;;;;;;5101207;28;20032;-66
2023/08/25 10:35:14;;;;;;;21.95;12.18;;;27.60;99.90;;;;;;5105410;28;20049;-64
2023/08/25 10:37:40;;;;;;;22.92;13.02;;;27.70;99.90;;;;;;5097101;28;20118;-67
2023/08/25 10:40:12;;;;;;;22.10;11.93;;;27.80;99.90;;;;;;5101165;28;20027;-66
2023/08/25 10:42:38;;;;;;;21.65;11.80;;;27.80;99.90;;;;;;5094345;28;20027;-65
2023/08/25 10:45:07;;;;;;;22.55;11.15;;;27.80;99.90;;;;;;5100601;27;20028;-66
2023/08/25 10:47:41;;;;;;;19.15;11.00;;;27.80;99.90;;;;;;5103923;28;20024;-66
2023/08/25 10:50:07;;;;;;;20.63;12.25;;;27.90;99.90;;;;;;5112698;28;20019;-65
2023/08/25 10:52:33;;;;;;;22.25;12.02;;;27.90;99.90;;;;;;5103436;27;20028;-66
2023/08/25 10:55:23;;;;;;;22.00;11.52;;;28.10;99.90;;;;;;5097436;28;20126;-66
2023/08/25 10:57:52;;;;;;;21.67;12.02;;;28.30;99.90;;;;;;5105100;28;20490;-67
2023/08/25 11:00:29;;;;;;;21.25;11.27;;;28.50;99.90;;;;;;5098202;28;20483;-66
2023/08/25 11:02:55;;;;;;;23.33;10.93;;;28.90;99.90;;;;;;5114996;28;20118;-67
2023/08/25 11:05:31;;;;;;;19.35;11.40;;;29.70;99.90;;;;;;5114574;28;20027;-67
2023/08/25 11:07:57;;;;;;;21.67;11.13;;;30.50;99.60;;;;;;5114397;28;20402;-67
2023/08/25 11:10:24;;;;;;;18.90;12.05;;;31.60;98.70;;;;;;5107930;28;20020;-67
2023/08/25 11:12:52;;;;;;;19.25;10.10;;;32.60;97.30;;;;;;5104298;28;20533;-67
2023/08/25 11:15:18;;;;;;;16.92;9.57;;;33.50;96.30;;;;;;5096577;28;20039;-67
2023/08/25 11:17:45;;;;;;;18.30;10.98;;;34.50;95.30;;;;;;5114582;28;20138;-67
2023/08/25 11:20:11;;;;;;;20.23;10.25;;;35.30;94.80;;;;;;5114138;28;20027;-66
2023/08/25 11:22:53;;;;;;;16.45;9.15;;;36.30;93.80;;;;;;5114344;28;20023;-67
2023/08/25 11:25:19;;;;;;;17.70;9.50;;;37.00;92.80;;;;;;5114082;28;20046;-67
2023/08/25 11:27:48;;;;;;;19.15;9.05;;;37.60;91.90;;;;;;5114454;28;20027;-68
2023/08/25 11:30:15;;;;;;;17.38;9.18;;;37.90;91.30;;;;;;5114482;28;20052;-65
2023/08/25 11:32:40;;;;;;;16.85;9.70;;;38.40;90.70;;;;;;5113970;28;20036;-65
2023/08/25 11:35:06;;;;;;;14.88;8.93;;;38.70;90.10;;;;;;5114346;28;20092;-66
2023/08/25 11:37:32;;;;;;;14.90;7.32;;;38.40;90.00;;;;;;5114069;28;20031;-67
2023/08/25 11:39:58;;;;;;;16.92;8.68;;;37.70;90.30;;;;;;5114444;28;20416;-66
2023/08/25 11:42:23;;;;;;;14.48;8.00;;;37.10;90.40;;;;;;5112603;28;20034;-66
2023/08/25 11:44:52;;;;;;;16.85;9.40;;;36.50;91.10;;;;;;5114154;28;20032;-66
2023/08/25 11:47:20;;;;;;;16.02;8.63;;;35.90;91.30;;;;;;5113857;28;20047;-66
2023/08/25 11:49:48;;;;;;;17.15;9.15;;;35.10;91.60;;;;;;5113792;28;20058;-66
2023/08/25 11:52:15;;;;;;;19.77;9.68;;;34.30;92.30;;;;;;5113799;28;20061;-66
2023/08/25 11:54:48;;;;;;;17.00;8.30;;;33.70;92.90;;;;;;5113772;28;20043;-67
2023/08/25 11:57:14;;;;;;;18.30;9.18;;;33.10;93.20;;;;;;5114176;28;20024;-67
2023/08/25 11:59:45;;;;;;;15.27;9.23;;;32.70;94.00;;;;;;5113401;27;20057;-67
2023/08/25 12:02:18;;;;;;;16.30;9.43;;;32.50;93.90;;;;;;5112227;28;20535;-67
2023/08/25 12:04:57;;;;;;;19.10;9.55;;;32.40;94.00;;;;;;5113389;28;20020;-67
2023/08/25 12:07:28;;;;;;;17.55;9.02;;;32.20;94.00;;;;;;5113609;28;20115;-67
2023/08/25 12:10:00;;;;;;;17.52;7.95;;;31.90;94.50;;;;;;5113393;28;20534;-67
2023/08/25 12:12:30;;;;;;;13.70;7.43;;;31.50;94.60;;;;;;5113470;28;20032;-66
2023/08/25 12:14:56;;;;;;;16.88;7.82;;;31.00;95.30;;;;;;5113035;28;20039;-66
2023/08/25 12:17:27;;;;;;;16.38;8.13;;;30.80;95.50;;;;;;5102028;28;20028;-66
2023/08/25 12:19:53;;;;;;;13.23;7.60;;;30.50;95.50;;;;;;5102871;28;20063;-66
2023/08/25 12:22:19;;;;;;;18.30;7.88;;;30.30;95.80;;;;;;5101413;28;20104;-66
2023/08/25 12:24:46;;;;;;;14.43;7.22;;;30.30;95.90;;;;;;5101495;28;20453;-66
2023/08/25 12:27:12;;;;;;;13.10;6.20;;;30.30;95.80;;;;;;5101921;28;20041;-66